createdAt,value
2023-04-04T00:00:39.962Z,-1.01
2023-04-04T00:03:07.904Z,-1.01
2023-04-04T00:05:36.178Z,-1.03
2023-04-04T00:08:04.105Z,-1.04
2023-04-04T00:10:31.832Z,-1.02
2023-04-04T00:13:01.179Z,-1.04
2023-04-04T00:15:28.857Z,-1.05
2023-04-04T00:17:57.116Z,-1.06
2023-04-04T00:20:24.946Z,-1.06
2023-04-04T00:22:52.566Z,-1.06
2023-04-04T00:25:20.497Z,-1.10
2023-04-04T00:27:48.744Z,-1.14
2023-04-04T00:30:17.762Z,-1.19
2023-04-04T00:32:45.469Z,-1.23
2023-04-04T00:35:13.784Z,-1.27
2023-04-04T00:37:41.390Z,-1.28
2023-04-04T00:40:10.233Z,-1.31
2023-04-04T00:42:38.316Z,-1.33
2023-04-04T00:45:08.619Z,-1.35
2023-04-04T00:47:39.720Z,-1.35
2023-04-04T00:50:08.898Z,-1.37
2023-04-04T00:52:37.458Z,-1.40
2023-04-04T00:55:05.783Z,-1.40
2023-04-04T00:57:34.619Z,-1.42
2023-04-04T01:00:05.187Z,-1.43
2023-04-04T01:02:33.354Z,-1.43
2023-04-04T01:05:04.440Z,-1.45
2023-04-04T01:07:32.655Z,-1.47
2023-04-04T01:10:00.603Z,-1.48
2023-04-04T01:12:28.564Z,-1.48
2023-04-04T01:14:56.331Z,-1.48
2023-04-04T01:17:25.119Z,-1.47
2023-04-04T01:20:01.882Z,-1.43
2023-04-04T01:22:32.634Z,-1.42
2023-04-04T01:25:02.867Z,-1.39
2023-04-04T01:27:32.313Z,-1.37
2023-04-04T01:30:00.406Z,-1.35
2023-04-04T01:32:34.743Z,-1.34
2023-04-04T01:35:12.750Z,-1.29
2023-04-04T01:37:49.954Z,-1.27
2023-04-04T01:40:19.672Z,-1.24
2023-04-04T01:42:49.745Z,-1.22
2023-04-04T01:45:17.464Z,-1.20
2023-04-04T01:47:45.418Z,-1.17
2023-04-04T01:50:13.073Z,-1.12
2023-04-04T01:52:40.819Z,-1.08
2023-04-04T01:55:09.305Z,-1.04
2023-04-04T01:57:37.155Z,-1.00
2023-04-04T02:00:07.403Z,-0.97
2023-04-04T02:02:35.200Z,-0.94
2023-04-04T02:05:04.091Z,-0.93
2023-04-04T02:07:31.956Z,-0.94
2023-04-04T02:09:59.645Z,-0.93
2023-04-04T02:12:27.465Z,-0.92
2023-04-04T02:14:55.222Z,-0.92
2023-04-04T02:17:25.605Z,-0.92
2023-04-04T02:19:53.473Z,-0.92
2023-04-04T02:22:21.274Z,-0.86
2023-04-04T02:24:49.078Z,-0.82
2023-04-04T02:27:16.723Z,-0.81
2023-04-04T02:29:44.510Z,-0.80
2023-04-04T02:32:12.266Z,-0.77
2023-04-04T02:34:41.304Z,-0.72
2023-04-04T02:37:09.144Z,-0.73
2023-04-04T02:39:36.765Z,-0.73
2023-04-04T02:42:04.393Z,-0.75
2023-04-04T02:44:31.961Z,-0.77
2023-04-04T02:46:59.903Z,-0.79
2023-04-04T02:49:27.775Z,-0.83
2023-04-04T02:51:56.771Z,-0.88
2023-04-04T02:54:24.370Z,-0.92
2023-04-04T02:56:52.567Z,-0.94
2023-04-04T02:59:21.196Z,-0.97
2023-04-04T03:01:49.090Z,-0.99
2023-04-04T03:04:16.893Z,-1.00
2023-04-04T03:06:45.448Z,-1.05
2023-04-04T03:09:14.467Z,-1.09
2023-04-04T03:11:42.047Z,-1.12
2023-04-04T03:14:09.734Z,-1.17
2023-04-04T03:16:37.587Z,-1.20
2023-04-04T03:19:05.278Z,-1.24
2023-04-04T03:21:32.910Z,-1.26
2023-04-04T03:24:00.599Z,-1.29
2023-04-04T03:26:29.697Z,-1.34
2023-04-04T03:28:57.582Z,-1.32
2023-04-04T03:31:25.317Z,-1.34
2023-04-04T03:33:53.326Z,-1.35
2023-04-04T03:36:21.104Z,-1.33
2023-04-04T03:38:48.937Z,-1.33
2023-04-04T03:41:16.527Z,-1.30
2023-04-04T03:43:45.676Z,-1.29
2023-04-04T03:46:13.635Z,-1.28
2023-04-04T03:48:41.604Z,-1.24
2023-04-04T03:51:09.557Z,-1.22
2023-04-04T03:53:37.766Z,-1.18
2023-04-04T03:56:06.381Z,-1.16
2023-04-04T03:58:37.142Z,-1.14
2023-04-04T04:01:06.096Z,-1.09
2023-04-04T04:03:33.914Z,-1.06
2023-04-04T04:06:01.930Z,-1.01
2023-04-04T04:08:29.843Z,-0.98
2023-04-04T04:10:57.649Z,-0.97
2023-04-04T04:13:25.271Z,-0.96
2023-04-04T04:15:55.603Z,-0.96
2023-04-04T04:18:24.576Z,-0.95
2023-04-04T04:20:52.195Z,-0.94
2023-04-04T04:23:19.823Z,-0.93
2023-04-04T04:25:49.021Z,-0.93
2023-04-04T04:28:16.653Z,-0.92
2023-04-04T04:30:44.372Z,-0.90
2023-04-04T04:33:12.270Z,-0.90
2023-04-04T04:35:41.583Z,-0.90
2023-04-04T04:38:09.911Z,-0.90
2023-04-04T04:40:37.832Z,-0.91
2023-04-04T04:43:05.583Z,-0.91
2023-04-04T04:45:33.191Z,-0.91
2023-04-04T04:48:00.895Z,-0.87
2023-04-04T04:50:28.542Z,-0.83
2023-04-04T04:52:57.663Z,-0.80
2023-04-04T04:55:25.239Z,-0.74
2023-04-04T04:57:52.902Z,-0.65
2023-04-04T05:00:22.288Z,-0.58
2023-04-04T05:02:50.357Z,-0.49
2023-04-04T05:05:18.203Z,-0.36
2023-04-04T05:07:47.026Z,-0.20
2023-04-04T05:10:16.378Z,0.00
2023-04-04T05:12:44.581Z,0.70
2023-04-04T05:15:12.833Z,1.44
2023-04-04T05:17:40.767Z,2.08
2023-04-04T05:20:09.186Z,2.73
2023-04-04T05:22:36.814Z,3.56
2023-04-04T05:25:04.565Z,4.25
2023-04-04T05:27:33.547Z,4.72
2023-04-04T05:30:01.304Z,5.01
2023-04-04T05:32:29.000Z,5.27
2023-04-04T05:34:56.999Z,5.53
2023-04-04T05:37:24.583Z,6.13
2023-04-04T05:39:52.526Z,7.12
2023-04-04T05:42:20.129Z,8.04
2023-04-04T05:44:49.472Z,8.74
2023-04-04T05:47:17.084Z,9.34
2023-04-04T05:49:44.988Z,9.91
2023-04-04T05:52:13.057Z,10.41
2023-04-04T05:54:41.011Z,10.92
2023-04-04T05:57:08.595Z,11.34
2023-04-04T05:59:36.692Z,11.83
2023-04-04T06:02:07.644Z,12.31
2023-04-04T06:04:35.390Z,12.65
2023-04-04T06:07:03.533Z,13.08
2023-04-04T06:09:31.200Z,13.40
2023-04-04T06:11:58.770Z,13.67
2023-04-04T06:14:26.431Z,14.01
2023-04-04T06:16:53.995Z,13.90
2023-04-04T06:19:23.012Z,14.23
2023-04-04T06:21:50.799Z,14.45
2023-04-04T06:24:18.461Z,14.47
2023-04-04T06:26:46.493Z,14.43
2023-04-04T06:29:14.191Z,14.69
2023-04-04T06:31:41.990Z,14.88
2023-04-04T06:34:09.784Z,15.23
2023-04-04T06:36:38.775Z,15.43
2023-04-04T06:39:06.400Z,15.38
2023-04-04T06:41:34.315Z,15.19
2023-04-04T06:44:02.064Z,15.01
2023-04-04T06:46:31.656Z,14.55
2023-04-04T06:48:59.437Z,13.94
2023-04-04T06:51:27.147Z,13.09
2023-04-04T06:53:56.706Z,12.32
2023-04-04T06:56:24.446Z,11.57
2023-04-04T06:58:52.059Z,11.05
2023-04-04T07:01:20.215Z,10.46
2023-04-04T07:03:47.878Z,10.13
2023-04-04T07:06:15.576Z,10.12
2023-04-04T07:08:43.560Z,9.91
2023-04-04T07:11:12.718Z,9.61
2023-04-04T07:13:40.926Z,9.53
2023-04-04T07:16:08.593Z,9.22
2023-04-04T07:18:36.370Z,9.01
2023-04-04T07:21:04.019Z,8.49
2023-04-04T07:23:31.617Z,8.66
2023-04-04T07:25:59.437Z,8.91
2023-04-04T07:28:28.472Z,9.06
2023-04-04T07:30:56.138Z,9.22
2023-04-04T07:33:23.766Z,9.36
2023-04-04T07:35:52.142Z,9.30
2023-04-04T07:38:19.773Z,9.18
2023-04-04T07:40:49.685Z,9.13
2023-04-04T07:43:17.799Z,8.96
2023-04-04T07:45:50.090Z,8.48
2023-04-04T07:48:18.815Z,8.36
2023-04-04T07:50:47.647Z,8.53
2023-04-04T07:53:15.286Z,8.64
2023-04-04T07:55:42.905Z,8.58
2023-04-04T07:58:10.697Z,8.67
2023-04-04T08:00:38.757Z,8.94
2023-04-04T08:03:08.119Z,8.74
2023-04-04T08:05:35.876Z,8.71
2023-04-04T08:08:03.462Z,9.21
2023-04-04T08:10:31.325Z,9.47
2023-04-04T08:12:59.029Z,9.67
2023-04-04T08:15:27.401Z,9.76
2023-04-04T08:17:55.962Z,9.29
2023-04-04T08:20:25.169Z,9.15
2023-04-04T08:22:52.762Z,8.66
2023-04-04T08:25:20.436Z,8.43
2023-04-04T08:27:47.999Z,8.26
2023-04-04T08:30:15.794Z,8.49
2023-04-04T08:32:44.352Z,8.60
2023-04-04T08:35:12.236Z,8.63
2023-04-04T08:37:45.161Z,8.65
2023-04-04T08:40:13.161Z,8.55
2023-04-04T08:42:43.282Z,8.52
2023-04-04T08:45:13.179Z,8.63
2023-04-04T08:47:42.937Z,8.58
2023-04-04T08:50:11.049Z,8.62
2023-04-04T08:52:43.173Z,8.60
2023-04-04T08:55:12.214Z,8.52
2023-04-04T08:57:40.055Z,8.67
2023-04-04T09:00:09.955Z,9.03
2023-04-04T09:02:44.356Z,9.57
2023-04-04T09:05:13.920Z,10.11
2023-04-04T09:07:44.929Z,10.60
2023-04-04T09:10:13.168Z,10.76
2023-04-04T09:12:43.971Z,10.90
2023-04-04T09:15:12.488Z,10.71
2023-04-04T09:17:40.224Z,10.79
2023-04-04T09:20:35.854Z,10.97
2023-04-04T09:23:06.576Z,11.10
2023-04-04T09:25:35.923Z,11.31
2023-04-04T09:28:05.534Z,11.59
2023-04-04T09:30:35.487Z,11.56
2023-04-04T09:33:05.433Z,11.53
2023-04-04T09:35:35.310Z,11.47
2023-04-04T09:38:03.752Z,11.82
2023-04-04T09:40:33.512Z,11.55
2023-04-04T09:43:01.951Z,11.62
2023-04-04T09:45:32.553Z,11.76
2023-04-04T09:48:00.413Z,12.17
2023-04-04T09:50:28.923Z,12.28
2023-04-04T09:52:59.312Z,12.12
2023-04-04T09:55:36.295Z,11.89
2023-04-04T09:58:13.435Z,12.07
2023-04-04T10:00:44.954Z,12.05
2023-04-04T10:03:15.002Z,12.09
2023-04-04T10:05:42.822Z,12.11
2023-04-04T10:08:18.556Z,11.91
2023-04-04T10:11:02.700Z,11.80
2023-04-04T10:13:40.845Z,11.84
2023-04-04T10:16:10.416Z,12.13
2023-04-04T10:18:38.312Z,12.13
2023-04-04T10:23:39.531Z,12.22
2023-04-04T10:26:08.717Z,11.99
2023-04-04T10:28:36.852Z,12.40
2023-04-04T10:31:10.898Z,12.34
2023-04-04T10:33:45.448Z,12.32
2023-04-04T10:36:14.896Z,12.22
2023-04-04T10:38:46.248Z,12.49
2023-04-04T10:41:15.993Z,12.42
2023-04-04T10:43:48.641Z,12.76
2023-04-04T10:46:20.185Z,12.78
2023-04-04T10:48:49.519Z,11.45
2023-04-04T10:51:17.950Z,10.76
2023-04-04T10:53:46.302Z,10.74
2023-04-04T10:56:16.255Z,10.93
2023-04-04T10:58:44.031Z,10.65
2023-04-04T11:01:16.435Z,10.81
2023-04-04T11:04:20.338Z,11.35
2023-04-04T11:07:14.899Z,11.86
2023-04-04T11:09:51.174Z,11.64
2023-04-04T11:12:24.268Z,11.61
2023-04-04T11:15:11.994Z,10.91
2023-04-04T11:18:02.850Z,11.06
2023-04-04T11:20:38.892Z,10.80
2023-04-04T11:23:08.827Z,10.31
2023-04-04T11:25:38.637Z,10.56
2023-04-04T11:28:15.795Z,10.63
2023-04-04T11:30:53.763Z,11.14
2023-04-04T11:33:28.707Z,10.87
2023-04-04T11:36:01.356Z,11.07
2023-04-04T11:38:30.351Z,11.43
2023-04-04T11:40:58.607Z,10.91
2023-04-04T11:43:28.637Z,10.68
2023-04-04T11:46:06.717Z,10.70
2023-04-04T11:48:34.420Z,10.72
2023-04-04T11:51:04.527Z,10.49
2023-04-04T11:53:32.751Z,10.58
2023-04-04T11:56:00.354Z,10.71
2023-04-04T11:58:29.489Z,10.22
2023-04-04T12:00:57.244Z,9.86
2023-04-04T12:03:25.427Z,9.75
2023-04-04T12:05:53.188Z,9.79
2023-04-04T12:08:23.855Z,9.84
2023-04-04T12:10:52.939Z,9.97
2023-04-04T12:13:20.545Z,9.95
2023-04-04T12:15:49.775Z,10.07
2023-04-04T12:18:22.946Z,10.68
2023-04-04T12:20:52.713Z,10.98
2023-04-04T12:23:20.714Z,10.77
2023-04-04T12:25:53.568Z,10.79
2023-04-04T12:28:21.817Z,10.63
2023-04-04T12:30:51.336Z,10.54
2023-04-04T12:33:19.110Z,11.07
2023-04-04T12:35:52.886Z,11.44
2023-04-04T12:38:20.705Z,10.80
2023-04-04T12:40:48.635Z,11.17
2023-04-04T12:43:18.734Z,11.20
2023-04-04T12:45:46.429Z,11.37
2023-04-04T12:48:18.010Z,11.44
2023-04-04T12:50:53.181Z,11.64
2023-04-04T12:53:29.192Z,11.64
2023-04-04T12:56:00.882Z,12.01
2023-04-04T12:58:28.665Z,12.14
2023-04-04T13:00:59.870Z,12.15
2023-04-04T13:03:30.136Z,12.29
2023-04-04T13:05:59.664Z,12.54
2023-04-04T13:08:27.373Z,12.69
2023-04-04T13:10:59.622Z,12.89
2023-04-04T13:13:35.335Z,12.81
2023-04-04T13:16:04.415Z,11.64
2023-04-04T13:18:41.694Z,11.75
2023-04-04T13:21:09.756Z,11.15
2023-04-04T13:23:39.437Z,11.18
2023-04-04T13:26:08.010Z,11.26
2023-04-04T13:28:36.364Z,11.30
2023-04-04T13:31:05.206Z,11.68
2023-04-04T13:33:33.097Z,11.47
2023-04-04T13:36:02.786Z,11.26
2023-04-04T13:38:31.295Z,11.34
2023-04-04T13:40:59.963Z,11.41
2023-04-04T13:43:27.998Z,11.09
2023-04-04T13:45:56.111Z,10.97
2023-04-04T13:48:23.991Z,11.25
2023-04-04T13:50:52.935Z,10.99
2023-04-04T13:53:22.117Z,11.05
2023-04-04T13:56:02.156Z,11.23
2023-04-04T13:58:37.299Z,11.33
2023-04-04T14:01:06.083Z,11.10
2023-04-04T14:03:33.785Z,10.99
2023-04-04T14:06:09.320Z,11.10
2023-04-04T14:08:39.665Z,10.72
2023-04-04T14:11:07.330Z,11.02
2023-04-04T14:13:36.192Z,10.89
2023-04-04T14:16:04.008Z,10.76
2023-04-04T14:18:31.646Z,11.14
2023-04-04T14:20:59.255Z,10.99
2023-04-04T14:23:27.065Z,11.07
2023-04-04T14:25:56.002Z,10.94
2023-04-04T14:28:23.597Z,11.02
2023-04-04T14:30:51.501Z,10.93
2023-04-04T14:33:19.141Z,10.86
2023-04-04T14:35:46.773Z,10.76
2023-04-04T14:38:14.331Z,10.83
2023-04-04T14:40:42.583Z,10.88
2023-04-04T14:43:11.690Z,10.45
2023-04-04T14:45:39.496Z,10.56
2023-04-04T14:48:07.564Z,10.63
2023-04-04T14:50:35.281Z,10.84
2023-04-04T14:53:02.837Z,10.61
2023-04-04T14:55:30.619Z,10.64
2023-04-04T14:58:02.662Z,10.55
2023-04-04T15:00:32.531Z,10.56
2023-04-04T15:03:00.146Z,10.42
2023-04-04T15:05:27.887Z,10.50
2023-04-04T15:07:55.725Z,10.30
2023-04-04T15:10:23.973Z,10.05
2023-04-04T15:12:51.738Z,10.14
2023-04-04T15:15:19.976Z,10.06
2023-04-04T15:17:50.685Z,9.82
2023-04-04T15:20:18.614Z,9.68
2023-04-04T15:22:46.194Z,9.70
2023-04-04T15:25:13.807Z,9.67
2023-04-04T15:27:41.414Z,9.66
2023-04-04T15:30:10.212Z,9.48
2023-04-04T15:32:37.921Z,9.44
2023-04-04T15:35:08.171Z,9.52
2023-04-04T15:37:36.027Z,9.47
2023-04-04T15:40:03.625Z,9.23
2023-04-04T15:42:31.784Z,9.33
2023-04-04T15:44:59.382Z,9.23
2023-04-04T15:47:27.023Z,9.06
2023-04-04T15:49:54.627Z,9.04
2023-04-04T15:52:23.585Z,9.09
2023-04-04T15:54:51.257Z,9.03
2023-04-04T15:57:18.926Z,8.92
2023-04-04T15:59:47.270Z,8.78
2023-04-04T16:02:15.412Z,8.60
2023-04-04T16:04:43.126Z,8.61
2023-04-04T16:07:10.776Z,8.58
2023-04-04T16:09:39.728Z,8.59
2023-04-04T16:12:07.341Z,8.53
2023-04-04T16:14:34.934Z,8.52
2023-04-04T16:17:03.155Z,8.49
2023-04-04T16:19:30.798Z,8.39
2023-04-04T16:21:59.083Z,8.22
2023-04-04T16:24:27.358Z,8.24
2023-04-04T16:26:56.805Z,8.25
2023-04-04T16:29:24.511Z,8.36
2023-04-04T16:31:52.195Z,8.31
2023-04-04T16:34:20.308Z,8.37
2023-04-04T16:36:47.968Z,8.29
2023-04-04T16:39:16.914Z,8.23
2023-04-04T16:41:45.000Z,8.17
2023-04-04T16:44:15.674Z,8.03
2023-04-04T16:46:43.368Z,7.95
2023-04-04T16:49:11.713Z,8.02
2023-04-04T16:51:39.413Z,7.99
2023-04-04T16:54:07.044Z,7.90
2023-04-04T16:56:34.647Z,7.84
2023-04-04T16:59:02.389Z,7.82
2023-04-04T17:01:31.854Z,7.78
2023-04-04T17:03:59.924Z,7.78
2023-04-04T17:06:27.712Z,7.75
2023-04-04T17:08:55.356Z,7.66
2023-04-04T17:11:23.031Z,7.58
2023-04-04T17:13:50.637Z,7.58
2023-04-04T17:16:18.337Z,7.44
2023-04-04T17:18:47.309Z,7.45
2023-04-04T17:21:14.920Z,7.45
2023-04-04T17:23:42.493Z,7.44
2023-04-04T17:26:10.103Z,7.43
2023-04-04T17:28:37.719Z,7.43
2023-04-04T17:31:05.616Z,7.37
2023-04-04T17:33:33.200Z,7.34
2023-04-04T17:36:03.343Z,7.24
2023-04-04T17:38:31.135Z,7.20
2023-04-04T17:41:02.932Z,7.19
2023-04-04T17:43:31.008Z,7.15
2023-04-04T17:45:58.936Z,7.12
2023-04-04T17:48:28.180Z,7.06
2023-04-04T17:50:55.782Z,7.01
2023-04-04T17:53:25.379Z,6.90
2023-04-04T17:55:53.014Z,6.71
2023-04-04T17:58:20.999Z,6.59
2023-04-04T18:00:49.316Z,6.25
2023-04-04T18:03:19.360Z,6.15
2023-04-04T18:05:47.097Z,6.07
2023-04-04T18:08:14.643Z,6.04
2023-04-04T18:10:43.623Z,6.01
2023-04-04T18:13:11.394Z,5.96
2023-04-04T18:15:39.020Z,5.90
2023-04-04T18:18:07.970Z,5.81
2023-04-04T18:20:36.560Z,5.79
2023-04-04T18:23:04.505Z,5.71
2023-04-04T18:25:32.283Z,5.67
2023-04-04T18:28:01.913Z,5.64
2023-04-04T18:30:29.687Z,5.63
2023-04-04T18:32:58.262Z,5.53
2023-04-04T18:35:26.255Z,5.49
2023-04-04T18:37:53.977Z,5.46
2023-04-04T18:40:21.621Z,5.41
2023-04-04T18:42:49.713Z,5.39
2023-04-04T18:45:20.940Z,5.37
2023-04-04T18:47:49.848Z,5.32
2023-04-04T18:50:18.661Z,5.27
2023-04-04T18:52:46.329Z,5.26
2023-04-04T18:55:14.029Z,5.25
2023-04-04T18:57:41.715Z,5.21
2023-04-04T19:00:10.096Z,5.17
2023-04-04T19:02:40.657Z,5.15
2023-04-04T19:05:12.169Z,5.12
2023-04-04T19:07:40.627Z,5.11
2023-04-04T19:10:09.627Z,5.09
2023-04-04T19:12:37.261Z,5.05
2023-04-04T19:15:06.800Z,5.01
2023-04-04T19:17:34.456Z,4.99
2023-04-04T19:20:03.479Z,4.99
2023-04-04T19:22:31.181Z,4.97
2023-04-04T19:24:58.915Z,4.92
2023-04-04T19:27:26.558Z,4.90
2023-04-04T19:29:54.823Z,4.88
2023-04-04T19:32:27.165Z,4.87
2023-04-04T19:34:55.141Z,4.87
2023-04-04T19:37:25.524Z,4.83
2023-04-04T19:39:53.120Z,4.83
2023-04-04T19:42:28.032Z,4.76
2023-04-04T19:44:56.086Z,4.68
2023-04-04T19:47:23.739Z,4.58
2023-04-04T19:49:53.050Z,4.47
2023-04-04T19:52:25.212Z,4.36
2023-04-04T19:54:53.185Z,4.24
2023-04-04T19:57:21.472Z,4.13
2023-04-04T20:00:01.533Z,4.01
2023-04-04T20:02:51.831Z,3.86
2023-04-04T20:05:59.238Z,3.75
2023-04-04T20:08:35.856Z,3.63
2023-04-04T20:11:03.757Z,3.53
2023-04-04T20:13:32.772Z,3.44
2023-04-04T20:16:05.434Z,3.37
2023-04-04T20:18:34.620Z,3.29
2023-04-04T20:21:11.912Z,3.24
2023-04-04T20:23:46.455Z,3.18
2023-04-04T20:26:16.216Z,3.12
2023-04-04T20:28:47.430Z,3.07
2023-04-04T20:31:18.536Z,3.01
2023-04-04T20:33:46.216Z,2.95
2023-04-04T20:36:32.481Z,2.88
2023-04-04T20:39:01.530Z,2.84
2023-04-04T20:41:29.243Z,2.78
2023-04-04T20:43:58.276Z,2.72
2023-04-04T20:46:27.437Z,2.66
2023-04-04T20:48:56.692Z,2.59
2023-04-04T20:51:34.078Z,2.55
2023-04-04T20:54:04.545Z,2.52
2023-04-04T20:56:52.379Z,2.50
2023-04-04T20:59:34.834Z,2.47
2023-04-04T21:02:13.803Z,2.43
2023-04-04T21:04:42.403Z,2.40
2023-04-04T21:07:10.032Z,2.37
2023-04-04T21:09:39.023Z,2.34
2023-04-04T21:12:07.913Z,2.31
2023-04-04T21:14:37.469Z,2.27
2023-04-04T21:17:07.230Z,2.21
2023-04-04T21:19:34.931Z,2.18
2023-04-04T21:22:02.663Z,2.13
2023-04-04T21:24:35.119Z,2.08
2023-04-04T21:27:07.680Z,2.02
2023-04-04T21:29:35.386Z,2.01
2023-04-04T21:32:03.874Z,1.96
2023-04-04T21:34:32.343Z,1.91
2023-04-04T21:37:02.695Z,1.88
2023-04-04T21:39:31.161Z,1.87
2023-04-04T21:42:00.214Z,1.83
2023-04-04T21:44:31.094Z,1.80
2023-04-04T21:46:58.855Z,1.78
2023-04-04T21:49:26.705Z,1.76
2023-04-04T21:51:54.350Z,1.73
2023-04-04T21:54:21.935Z,1.72
2023-04-04T21:56:49.551Z,1.67
2023-04-04T21:59:17.895Z,1.63
2023-04-04T22:01:48.595Z,1.60
2023-04-04T22:04:16.637Z,1.57
2023-04-04T22:06:44.335Z,1.56
2023-04-04T22:09:12.134Z,1.52
2023-04-04T22:11:44.098Z,1.51
2023-04-04T22:14:17.299Z,1.48
2023-04-04T22:16:45.277Z,1.46
2023-04-04T22:19:14.332Z,1.41
2023-04-04T22:21:46.633Z,1.34
2023-04-04T22:24:17.551Z,1.28
2023-04-04T22:26:45.900Z,1.21
2023-04-04T22:29:13.737Z,1.18
2023-04-04T22:31:41.525Z,1.16
2023-04-04T22:34:09.653Z,1.11
2023-04-04T22:36:39.311Z,1.06
2023-04-04T22:39:07.406Z,1.02
2023-04-04T22:41:35.054Z,0.99
2023-04-04T22:44:02.669Z,0.97
2023-04-04T22:46:31.347Z,0.94
2023-04-04T22:49:06.495Z,0.92
2023-04-04T22:51:42.787Z,0.89
2023-04-04T22:54:12.985Z,0.87
2023-04-04T22:56:40.890Z,0.84
2023-04-04T22:59:08.646Z,0.82
2023-04-04T23:01:36.279Z,0.79
2023-04-04T23:04:04.008Z,0.78
2023-04-04T23:06:31.667Z,0.76
2023-04-04T23:08:59.572Z,0.72
2023-04-04T23:11:28.524Z,0.70
2023-04-04T23:13:57.142Z,0.66
2023-04-04T23:16:26.030Z,0.64
2023-04-04T23:18:53.718Z,0.63
2023-04-04T23:21:21.788Z,0.60
2023-04-04T23:23:49.793Z,0.56
2023-04-04T23:26:17.774Z,0.53
2023-04-04T23:28:46.718Z,0.52
2023-04-04T23:31:16.221Z,0.48
2023-04-04T23:33:44.052Z,0.46
2023-04-04T23:36:11.771Z,0.45
2023-04-04T23:38:39.420Z,0.44
2023-04-04T23:41:07.486Z,0.43
2023-04-04T23:43:35.964Z,0.40
2023-04-04T23:46:05.893Z,0.37
2023-04-04T23:48:33.632Z,0.35
2023-04-04T23:51:03.709Z,0.30
2023-04-04T23:53:31.359Z,0.29
2023-04-04T23:55:59.010Z,0.26
2023-04-04T23:58:26.683Z,0.25
